Time;durP1;ratioP1;P1;durP2;ratioP2;P2;SDS_P1;SDS_P2;PMS_P1;PMS_P2;Temp;Humidity;BMP_temperature;BMP_pressure;BME280_temperature;BME280_humidity;BME280_pressure;Samples;Min_cycle;Max_cycle;Signal;HPM_P1;HPM_P2
2023/10/25 00:00:45;;;;;;;9.90;4.45;;;11.40;99.90;;;;;;5101135;28;20473;-81
2023/10/25 00:03:12;;;;;;;7.82;4.75;;;11.40;99.90;;;;;;5115163;28;20027;-84
2023/10/25 00:05:37;;;;;;;8.93;4.75;;;11.40;99.90;;;;;;5097475;28;20072;-85
2023/10/25 00:08:03;;;;;;;9.40;4.35;;;11.40;99.90;;;;;;5108727;28;20024;-81
2023/10/25 00:10:29;;;;;;;6.90;4.43;;;11.40;99.90;;;;;;5105661;28;20019;-82
2023/10/25 00:12:54;;;;;;;10.68;4.93;;;11.40;99.90;;;;;;5100524;28;20089;-80
2023/10/25 00:15:21;;;;;;;8.00;4.70;;;11.40;99.90;;;;;;5110422;28;20043;-81
2023/10/25 00:17:48;;;;;;;7.03;4.80;;;11.40;99.90;;;;;;5096880;28;20369;-81
2023/10/25 00:20:13;;;;;;;7.20;4.70;;;11.50;99.90;;;;;;5095454;28;20491;-82
2023/10/25 00:22:39;;;;;;;9.07;5.18;;;11.50;99.90;;;;;;5093811;28;20024;-81
2023/10/25 00:25:05;;;;;;;8.45;4.40;;;11.50;99.90;;;;;;5094457;28;20039;-80
2023/10/25 00:27:30;;;;;;;8.50;4.55;;;11.60;99.90;;;;;;5094144;28;20028;-81
2023/10/25 00:29:56;;;;;;;6.22;4.30;;;11.60;99.90;;;;;;5095716;28;20028;-79
2023/10/25 00:32:21;;;;;;;7.25;4.28;;;11.60;99.90;;;;;;5095009;28;20028;-81
2023/10/25 00:34:47;;;;;;;6.00;4.68;;;11.60;99.90;;;;;;5083191;28;20080;-80
2023/10/25 00:37:12;;;;;;;5.55;4.05;;;11.60;99.90;;;;;;5084394;28;20461;-82
2023/10/25 00:39:38;;;;;;;7.03;3.65;;;11.50;99.90;;;;;;5082224;28;20016;-81
2023/10/25 00:42:04;;;;;;;5.75;4.20;;;11.60;99.90;;;;;;5084148;28;20069;-81
2023/10/25 00:44:29;;;;;;;6.22;4.00;;;11.50;99.90;;;;;;5083428;28;20477;-81
2023/10/25 00:46:55;;;;;;;6.18;3.88;;;11.50;99.90;;;;;;5082680;28;20483;-82
2023/10/25 00:49:21;;;;;;;6.13;4.10;;;11.50;99.90;;;;;;5081929;28;20071;-82
2023/10/25 00:51:47;;;;;;;6.22;4.15;;;11.50;99.90;;;;;;5087228;28;20040;-81
2023/10/25 00:54:14;;;;;;;7.38;4.22;;;11.50;99.90;;;;;;5093899;28;20028;-81
2023/10/25 00:56:41;;;;;;;5.72;3.90;;;11.50;99.90;;;;;;5094388;28;20040;-81
2023/10/25 00:59:08;;;;;;;7.18;4.05;;;11.50;99.90;;;;;;5094990;28;20023;-81
2023/10/25 01:01:33;;;;;;;6.60;4.13;;;11.50;99.90;;;;;;5093267;28;20036;-81
2023/10/25 01:03:59;;;;;;;7.30;4.50;;;11.50;99.90;;;;;;5093697;28;20020;-81
2023/10/25 01:06:24;;;;;;;5.28;3.78;;;11.40;99.90;;;;;;5093155;28;20032;-81
2023/10/25 01:08:51;;;;;;;4.68;3.45;;;11.40;99.90;;;;;;5093643;28;20056;-81
2023/10/25 01:11:17;;;;;;;9.43;4.22;;;11.30;99.90;;;;;;5093592;28;20457;-81
2023/10/25 01:13:43;;;;;;;5.25;4.13;;;11.30;99.90;;;;;;5093967;28;20024;-81
2023/10/25 01:16:08;;;;;;;6.10;3.80;;;11.30;99.90;;;;;;5093707;28;20149;-81
2023/10/25 01:18:34;;;;;;;5.90;4.20;;;11.40;99.90;;;;;;5093043;28;20385;-82
2023/10/25 01:20:59;;;;;;;6.55;4.15;;;11.30;99.90;;;;;;5093489;28;20114;-80
2023/10/25 01:23:25;;;;;;;4.15;3.42;;;11.20;99.90;;;;;;5094147;28;20024;-81
2023/10/25 01:25:50;;;;;;;6.22;3.50;;;11.20;99.90;;;;;;5094544;28;20469;-79
2023/10/25 01:28:16;;;;;;;6.85;3.40;;;11.20;99.90;;;;;;5093347;28;20020;-81
2023/10/25 01:30:42;;;;;;;4.60;3.47;;;11.10;99.90;;;;;;5092769;28;20465;-81
2023/10/25 01:33:08;;;;;;;6.03;3.67;;;11.00;99.90;;;;;;5093312;28;20081;-81
2023/10/25 01:35:34;;;;;;;4.53;3.30;;;11.00;99.90;;;;;;5092772;28;20055;-81
2023/10/25 01:38:00;;;;;;;6.65;3.65;;;11.00;99.90;;;;;;5093341;28;20077;-80
2023/10/25 01:40:26;;;;;;;4.30;3.13;;;10.90;99.90;;;;;;5092657;28;20027;-81
2023/10/25 01:42:54;;;;;;;6.25;3.60;;;10.90;99.90;;;;;;5092976;28;20469;-81
2023/10/25 01:45:22;;;;;;;6.57;3.10;;;10.90;99.90;;;;;;5092654;28;20049;-81
2023/10/25 01:47:47;;;;;;;5.03;3.28;;;10.90;99.90;;;;;;5094158;28;20061;-81
2023/10/25 01:50:13;;;;;;;5.28;3.47;;;10.80;99.90;;;;;;5093244;28;20028;-81
2023/10/25 01:52:39;;;;;;;6.88;3.58;;;10.80;99.90;;;;;;5092513;28;20431;-81
2023/10/25 01:55:04;;;;;;;9.25;3.33;;;10.80;99.90;;;;;;5092897;28;20472;-81
2023/10/25 01:57:31;;;;;;;8.25;3.42;;;10.70;99.90;;;;;;5092680;28;20028;-81
2023/10/25 01:59:56;;;;;;;4.63;3.30;;;10.70;99.90;;;;;;5094181;28;20024;-81
2023/10/25 02:02:22;;;;;;;5.82;3.35;;;10.80;99.90;;;;;;5092673;28;20028;-81
2023/10/25 02:04:48;;;;;;;3.80;3.05;;;10.80;99.90;;;;;;5094107;28;20103;-80
2023/10/25 02:07:13;;;;;;;5.20;3.13;;;10.80;99.90;;;;;;5092782;28;20028;-80
2023/10/25 02:09:39;;;;;;;5.57;3.47;;;10.80;99.90;;;;;;5092459;28;20457;-81
2023/10/25 02:12:05;;;;;;;5.78;3.33;;;10.80;99.90;;;;;;5093630;28;20039;-81
2023/10/25 02:14:32;;;;;;;6.57;3.15;;;10.90;99.90;;;;;;5092293;28;20024;-80
2023/10/25 02:16:57;;;;;;;6.20;3.70;;;10.90;99.90;;;;;;5093839;28;20074;-81
2023/10/25 02:19:23;;;;;;;4.45;3.15;;;10.80;99.90;;;;;;5093945;28;20024;-81
2023/10/25 02:21:49;;;;;;;5.05;3.03;;;10.80;99.90;;;;;;5098029;28;20035;-81
2023/10/25 02:24:15;;;;;;;6.22;3.70;;;10.80;99.90;;;;;;5096858;28;20530;-81
2023/10/25 02:26:44;;;;;;;4.70;3.55;;;10.80;99.90;;;;;;5096404;28;20085;-80
2023/10/25 02:29:09;;;;;;;8.80;3.40;;;10.80;99.90;;;;;;5097940;28;20035;-80
2023/10/25 02:31:36;;;;;;;5.25;2.97;;;10.70;99.90;;;;;;5095934;28;20036;-80
2023/10/25 02:34:02;;;;;;;6.88;2.80;;;10.70;99.90;;;;;;5096833;28;20039;-80
2023/10/25 02:36:31;;;;;;;4.28;3.00;;;10.60;99.90;;;;;;5097426;28;20059;-81
2023/10/25 02:38:57;;;;;;;4.28;2.63;;;10.60;99.90;;;;;;5096882;28;20024;-81
2023/10/25 02:41:23;;;;;;;5.10;2.78;;;10.60;99.90;;;;;;5096401;28;20440;-81
2023/10/25 02:43:53;;;;;;;5.22;2.65;;;10.60;99.90;;;;;;5096764;28;20428;-82
2023/10/25 02:46:19;;;;;;;2.88;2.20;;;10.60;99.90;;;;;;5096882;28;20028;-81
2023/10/25 02:48:45;;;;;;;8.38;2.70;;;10.70;99.90;;;;;;5095742;28;20039;-80
2023/10/25 02:51:11;;;;;;;6.32;2.35;;;10.70;99.90;;;;;;5097160;28;20024;-81
2023/10/25 02:53:37;;;;;;;3.10;2.10;;;10.70;99.90;;;;;;5095941;28;20027;-81
2023/10/25 02:56:07;;;;;;;4.07;2.20;;;10.80;99.90;;;;;;5097450;28;20024;-81
2023/10/25 02:58:33;;;;;;;3.20;2.15;;;10.70;99.90;;;;;;5095966;28;20020;-81
2023/10/25 03:00:59;;;;;;;3.30;2.22;;;10.60;99.90;;;;;;5096545;28;20028;-81
2023/10/25 03:03:29;;;;;;;3.70;2.30;;;10.50;99.90;;;;;;5095966;28;20034;-82
2023/10/25 03:05:55;;;;;;;6.57;2.22;;;10.50;99.90;;;;;;5096134;28;20077;-81
2023/10/25 03:08:21;;;;;;;3.67;2.22;;;10.50;99.90;;;;;;5095744;28;20028;-81
2023/10/25 03:10:47;;;;;;;3.10;2.10;;;10.40;99.90;;;;;;5095513;28;20032;-81
2023/10/25 03:13:12;;;;;;;2.75;2.15;;;10.30;99.90;;;;;;5095928;28;20032;-80
2023/10/25 03:15:38;;;;;;;3.20;1.90;;;10.30;99.90;;;;;;5096426;28;20066;-81
2023/10/25 03:18:04;;;;;;;2.38;1.90;;;10.30;99.90;;;;;;5096901;28;20028;-81
2023/10/25 03:20:30;;;;;;;2.50;1.90;;;10.30;99.90;;;;;;5095450;28;20484;-81
2023/10/25 03:22:59;;;;;;;4.30;1.70;;;10.30;99.90;;;;;;5095805;28;20537;-81
2023/10/25 03:25:24;;;;;;;2.25;1.60;;;10.30;99.90;;;;;;5096820;28;20032;-80
2023/10/25 03:27:50;;;;;;;2.10;1.52;;;10.30;99.90;;;;;;5096224;28;20110;-81
2023/10/25 03:30:17;;;;;;;3.65;1.88;;;10.30;99.90;;;;;;5094808;28;20024;-81
2023/10/25 03:32:43;;;;;;;2.00;1.80;;;10.30;99.90;;;;;;5094925;28;20039;-81
2023/10/25 03:35:09;;;;;;;1.88;1.40;;;10.40;99.90;;;;;;5095669;28;20480;-81
2023/10/25 03:37:39;;;;;;;4.00;1.60;;;10.40;99.90;;;;;;5096274;28;20041;-82
2023/10/25 03:40:08;;;;;;;1.58;1.30;;;10.40;99.90;;;;;;5095722;28;20493;-81
2023/10/25 03:42:34;;;;;;;3.13;1.85;;;10.40;99.90;;;;;;5095962;28;20035;-81
2023/10/25 03:44:59;;;;;;;4.00;1.48;;;10.40;99.90;;;;;;5095335;28;20028;-81
2023/10/25 03:47:25;;;;;;;3.47;1.42;;;10.40;99.90;;;;;;5096358;28;20158;-80
2023/10/25 03:49:53;;;;;;;3.03;1.77;;;10.40;99.90;;;;;;5095780;28;20368;-81
2023/10/25 03:52:19;;;;;;;4.07;1.90;;;10.40;99.90;;;;;;5096317;28;20039;-80
2023/10/25 03:54:45;;;;;;;2.60;2.28;;;10.40;99.90;;;;;;5094866;28;20020;-81
2023/10/25 03:57:10;;;;;;;3.00;2.03;;;10.30;99.90;;;;;;5095173;28;20036;-80
2023/10/25 03:59:36;;;;;;;4.20;1.90;;;10.30;99.90;;;;;;5094683;28;20024;-81
2023/10/25 04:02:02;;;;;;;2.13;1.60;;;10.30;99.90;;;;;;5095198;28;20027;-81
2023/10/25 04:04:27;;;;;;;5.45;2.10;;;10.30;99.90;;;;;;5095119;28;20077;-80
2023/10/25 04:06:53;;;;;;;2.28;1.80;;;10.40;99.90;;;;;;5095805;28;20411;-80
2023/10/25 04:09:19;;;;;;;5.43;1.90;;;10.30;99.90;;;;;;5095837;28;20035;-80
2023/10/25 04:11:44;;;;;;;4.60;1.88;;;10.20;99.90;;;;;;5094361;28;20144;-80
2023/10/25 04:14:10;;;;;;;2.25;1.83;;;10.30;99.90;;;;;;5095830;28;20496;-80
2023/10/25 04:16:36;;;;;;;2.88;1.90;;;10.20;99.90;;;;;;5094866;28;20032;-80
2023/10/25 04:19:02;;;;;;;4.03;1.73;;;10.20;99.90;;;;;;5094904;28;20092;-79
2023/10/25 04:21:28;;;;;;;4.93;2.10;;;10.20;99.90;;;;;;5094587;28;20059;-80
2023/10/25 04:23:53;;;;;;;3.63;1.95;;;10.10;99.90;;;;;;5095028;28;20021;-80
2023/10/25 04:26:19;;;;;;;4.07;1.60;;;10.10;99.90;;;;;;5094765;28;20078;-80
2023/10/25 04:28:45;;;;;;;3.30;2.03;;;10.20;99.90;;;;;;5094377;28;20032;-80
2023/10/25 04:31:11;;;;;;;2.40;1.75;;;10.20;99.90;;;;;;5094715;28;20028;-81
2023/10/25 04:33:37;;;;;;;3.08;2.03;;;10.20;99.90;;;;;;5094178;28;20465;-81
2023/10/25 04:36:04;;;;;;;2.58;1.50;;;10.20;99.90;;;;;;5095354;28;20392;-81
2023/10/25 04:38:31;;;;;;;3.90;1.67;;;10.20;99.90;;;;;;5094284;28;20059;-81
2023/10/25 04:40:57;;;;;;;2.75;2.00;;;10.20;99.90;;;;;;5095182;28;20056;-81
2023/10/25 04:43:22;;;;;;;2.38;2.00;;;10.20;99.90;;;;;;5093864;28;20032;-80
2023/10/25 04:45:48;;;;;;;2.30;1.65;;;10.20;99.90;;;;;;5093723;28;20028;-83
2023/10/25 04:48:14;;;;;;;3.35;1.73;;;10.20;99.90;;;;;;5095232;28;20024;-82
2023/10/25 04:50:40;;;;;;;2.13;1.77;;;10.10;99.90;;;;;;5093975;28;20377;-83
2023/10/25 04:53:06;;;;;;;3.58;1.80;;;10.10;99.90;;;;;;5095276;28;20028;-83
2023/10/25 04:55:34;;;;;;;4.88;1.60;;;10.10;99.90;;;;;;5094663;28;20031;-82
2023/10/25 04:58:00;;;;;;;2.13;1.90;;;10.00;99.90;;;;;;5094352;28;20031;-83
2023/10/25 05:00:27;;;;;;;2.20;1.67;;;10.00;99.90;;;;;;5094026;28;20488;-83
2023/10/25 05:02:52;;;;;;;2.20;1.90;;;10.00;99.90;;;;;;5094371;28;20032;-82
2023/10/25 05:05:18;;;;;;;2.75;1.77;;;10.00;99.90;;;;;;5093997;28;20028;-82
2023/10/25 05:07:44;;;;;;;2.83;2.10;;;10.00;99.90;;;;;;5094468;28;20032;-82
2023/10/25 05:10:12;;;;;;;2.40;2.10;;;10.10;99.90;;;;;;5093932;28;20028;-82
2023/10/25 05:12:43;;;;;;;2.63;2.00;;;10.10;99.90;;;;;;5093589;28;20552;-81
2023/10/25 05:15:14;;;;;;;3.80;2.30;;;10.10;99.90;;;;;;5094995;28;20024;-81
2023/10/25 05:17:41;;;;;;;4.13;2.30;;;10.20;99.90;;;;;;5093222;28;20070;-81
2023/10/25 05:20:08;;;;;;;3.53;1.83;;;10.10;99.90;;;;;;5093668;28;20028;-80
2023/10/25 05:22:35;;;;;;;2.78;2.08;;;10.10;99.90;;;;;;5093181;28;20099;-81
2023/10/25 05:25:02;;;;;;;4.32;2.13;;;10.10;99.90;;;;;;5093493;28;20111;-80
2023/10/25 05:27:28;;;;;;;3.15;2.42;;;10.20;99.90;;;;;;5094393;28;20032;-80
2023/10/25 05:29:54;;;;;;;2.60;1.88;;;10.10;99.90;;;;;;5094041;28;20031;-80
2023/10/25 05:32:20;;;;;;;3.03;2.00;;;10.10;99.90;;;;;;5094172;28;20028;-80
2023/10/25 05:34:47;;;;;;;4.95;2.65;;;10.10;99.90;;;;;;5094220;28;20024;-80
2023/10/25 05:37:13;;;;;;;3.78;2.50;;;10.00;99.90;;;;;;5093379;28;20047;-80
2023/10/25 05:39:38;;;;;;;4.10;2.70;;;10.00;99.90;;;;;;5094029;28;20089;-80
2023/10/25 05:42:06;;;;;;;3.92;2.45;;;10.10;99.90;;;;;;5092635;28;20469;-79
2023/10/25 05:44:32;;;;;;;3.42;2.50;;;10.10;99.90;;;;;;5093212;28;20074;-80
2023/10/25 05:46:57;;;;;;;4.28;2.55;;;10.00;99.90;;;;;;5092819;28;20032;-81
2023/10/25 05:49:23;;;;;;;3.00;2.40;;;10.00;99.90;;;;;;5092921;28;20028;-80
2023/10/25 05:51:49;;;;;;;3.90;2.50;;;10.00;99.90;;;;;;5093704;28;20032;-80
2023/10/25 05:54:15;;;;;;;3.25;2.17;;;10.00;99.90;;;;;;5093493;28;20035;-80
2023/10/25 05:56:41;;;;;;;2.60;1.80;;;10.10;99.90;;;;;;5092861;28;20038;-80
2023/10/25 05:59:07;;;;;;;3.00;1.88;;;10.10;99.90;;;;;;5093206;28;20077;-80
2023/10/25 06:01:49;;;;;;;2.70;1.90;;;10.10;99.90;;;;;;5093184;28;20024;-80
2023/10/25 06:04:16;;;;;;;2.58;2.00;;;10.10;99.90;;;;;;5093333;28;20031;-80
2023/10/25 06:06:43;;;;;;;4.35;1.90;;;10.10;99.90;;;;;;5092575;28;20035;-80
2023/10/25 06:09:10;;;;;;;2.95;1.73;;;10.10;99.90;;;;;;5094140;28;20024;-80
2023/10/25 06:11:40;;;;;;;2.55;1.73;;;10.20;99.90;;;;;;5092384;28;20126;-80
2023/10/25 06:14:07;;;;;;;2.95;2.05;;;10.10;99.90;;;;;;5093759;28;20059;-80
2023/10/25 06:16:32;;;;;;;2.38;1.60;;;10.10;99.90;;;;;;5092644;28;20024;-81
2023/10/25 06:18:58;;;;;;;2.58;1.60;;;10.10;99.90;;;;;;5092331;28;20035;-80
2023/10/25 06:21:24;;;;;;;4.20;2.00;;;10.10;99.90;;;;;;5093148;28;20439;-81
2023/10/25 06:23:52;;;;;;;100.28;10.35;;;10.10;99.90;;;;;;5092437;28;20020;-81
2023/10/25 06:26:19;;;;;;;33.22;4.93;;;10.10;99.90;;;;;;5092532;28;20020;-80
2023/10/25 06:28:45;;;;;;;8.38;2.20;;;10.10;99.90;;;;;;5093064;28;20077;-80
2023/10/25 06:31:11;;;;;;;4.03;2.10;;;10.10;99.90;;;;;;5092472;28;20024;-81
2023/10/25 06:33:37;;;;;;;5.45;1.85;;;10.10;99.90;;;;;;5092187;28;20477;-80
2023/10/25 06:36:04;;;;;;;6.60;2.00;;;10.10;99.90;;;;;;5092135;28;20054;-80
2023/10/25 06:38:29;;;;;;;4.22;1.60;;;10.10;99.90;;;;;;5092166;28;20085;-80
2023/10/25 06:40:56;;;;;;;2.95;1.65;;;10.20;99.90;;;;;;5091828;28;20024;-81
2023/10/25 06:43:22;;;;;;;6.35;1.77;;;10.30;99.90;;;;;;5093525;28;20039;-80
2023/10/25 06:45:48;;;;;;;8.10;2.08;;;10.30;99.90;;;;;;5091916;28;20038;-80
2023/10/25 06:48:14;;;;;;;3.22;1.90;;;10.30;99.90;;;;;;5093464;28;20024;-80
2023/10/25 06:50:40;;;;;;;8.75;1.85;;;10.30;99.90;;;;;;5091778;28;20078;-81
2023/10/25 06:53:05;;;;;;;5.15;1.50;;;10.20;99.90;;;;;;5092051;28;20028;-81
2023/10/25 06:55:31;;;;;;;2.80;1.48;;;10.20;99.90;;;;;;5080295;28;20020;-81
2023/10/25 06:57:57;;;;;;;2.63;1.48;;;10.20;99.90;;;;;;5083232;28;20028;-81
2023/10/25 07:00:23;;;;;;;2.10;1.30;;;10.20;99.90;;;;;;5092236;28;20027;-80
2023/10/25 07:02:52;;;;;;;4.82;1.52;;;10.20;99.90;;;;;;5083976;28;20035;-81
2023/10/25 07:05:20;;;;;;;4.05;1.48;;;10.20;99.90;;;;;;5082110;28;20024;-81
2023/10/25 07:07:49;;;;;;;1.73;1.25;;;10.30;99.90;;;;;;5082553;28;20020;-81
2023/10/25 07:10:15;;;;;;;1.60;1.48;;;10.30;99.90;;;;;;5083252;28;20031;-81
2023/10/25 07:12:41;;;;;;;2.53;1.35;;;10.40;99.90;;;;;;5087358;28;20031;-81
2023/10/25 07:15:07;;;;;;;2.97;1.30;;;10.40;99.90;;;;;;5083661;28;20032;-80
2023/10/25 07:17:33;;;;;;;1.50;1.23;;;10.50;99.90;;;;;;5083257;28;20523;-80
2023/10/25 07:19:58;;;;;;;1.50;1.40;;;10.60;99.90;;;;;;5086446;28;20462;-80
2023/10/25 07:22:27;;;;;;;1.00;0.90;;;10.60;99.90;;;;;;5086397;28;20043;-81
2023/10/25 07:24:52;;;;;;;1.75;1.27;;;10.60;99.90;;;;;;5088455;28;20020;-81
2023/10/25 07:27:18;;;;;;;2.40;1.42;;;10.60;99.90;;;;;;5081311;28;20376;-80
2023/10/25 07:29:43;;;;;;;2.28;1.20;;;10.70;99.90;;;;;;5086251;28;20028;-81
2023/10/25 07:32:09;;;;;;;5.18;1.20;;;10.80;99.90;;;;;;5094844;28;20473;-86
2023/10/25 07:34:35;;;;;;;1.35;1.00;;;10.90;99.90;;;;;;5095308;28;20140;-82
2023/10/25 07:37:00;;;;;;;1.35;1.00;;;10.90;99.90;;;;;;5095030;28;20286;-84
2023/10/25 07:39:26;;;;;;;3.13;1.05;;;11.00;99.90;;;;;;5095870;28;20430;-86
2023/10/25 07:41:52;;;;;;;2.45;0.90;;;11.00;99.90;;;;;;5096208;28;20089;-85
2023/10/25 07:44:17;;;;;;;1.02;0.90;;;11.00;99.90;;;;;;5096636;28;20031;-86
2023/10/25 07:46:43;;;;;;;0.90;0.77;;;11.00;99.90;;;;;;5098454;28;20028;-86
2023/10/25 07:49:08;;;;;;;3.28;1.05;;;11.10;99.90;;;;;;5100018;28;20468;-86
2023/10/25 07:51:36;;;;;;;1.80;0.80;;;11.10;99.90;;;;;;5104286;28;20024;-89
2023/10/25 07:54:02;;;;;;;1.60;1.10;;;11.20;99.90;;;;;;5094199;28;20024;-86
2023/10/25 07:56:28;;;;;;;0.73;0.68;;;11.20;99.90;;;;;;5111581;28;20380;-85
2023/10/25 07:58:53;;;;;;;1.73;0.70;;;11.30;99.90;;;;;;5100446;28;20023;-83
2023/10/25 08:01:19;;;;;;;0.80;0.77;;;11.40;99.90;;;;;;5106183;28;20021;-84
2023/10/25 08:03:44;;;;;;;1.23;0.90;;;11.50;99.90;;;;;;5102255;28;20028;-85
2023/10/25 08:06:10;;;;;;;2.05;0.80;;;11.50;99.90;;;;;;5110501;28;20460;-89
2023/10/25 08:08:36;;;;;;;0.82;0.70;;;11.60;99.90;;;;;;5097576;28;20041;-85
2023/10/25 08:11:03;;;;;;;2.25;0.77;;;11.70;99.90;;;;;;5108060;28;20024;-84
2023/10/25 08:13:30;;;;;;;2.30;0.50;;;11.80;99.90;;;;;;5104170;28;20042;-84
2023/10/25 08:15:57;;;;;;;3.50;0.70;;;11.90;99.90;;;;;;5101034;28;20028;-87
2023/10/25 08:18:22;;;;;;;6.60;0.73;;;11.90;99.90;;;;;;5110583;28;20062;-86
2023/10/25 08:20:48;;;;;;;2.03;0.90;;;12.10;99.90;;;;;;5098244;28;20047;-86
2023/10/25 08:23:13;;;;;;;1.83;0.70;;;12.10;99.90;;;;;;5106585;28;20024;-84
2023/10/25 08:25:39;;;;;;;1.00;0.80;;;12.20;99.90;;;;;;5098332;28;20032;-86
2023/10/25 08:28:04;;;;;;;1.52;0.50;;;12.20;99.90;;;;;;5108832;28;20019;-88
2023/10/25 08:30:30;;;;;;;0.50;0.50;;;12.30;99.90;;;;;;5097710;28;20035;-85
2023/10/25 08:32:56;;;;;;;1.40;0.60;;;12.30;99.90;;;;;;5108168;28;20514;-87
2023/10/25 08:35:21;;;;;;;1.90;0.63;;;12.40;99.90;;;;;;5093871;28;20020;-83
2023/10/25 08:37:47;;;;;;;0.57;0.50;;;12.40;99.90;;;;;;5106623;28;20059;-84
2023/10/25 08:40:14;;;;;;;0.88;0.50;;;12.50;99.90;;;;;;5099061;28;20102;-84
2023/10/25 08:42:40;;;;;;;1.38;0.55;;;12.50;99.90;;;;;;5097221;28;20028;-89
2023/10/25 08:45:07;;;;;;;0.68;0.47;;;12.50;99.90;;;;;;5107530;28;20020;-85
2023/10/25 08:47:33;;;;;;;1.27;0.65;;;12.50;99.90;;;;;;5105557;28;20039;-84
2023/10/25 08:49:58;;;;;;;1.40;0.60;;;12.50;99.90;;;;;;5099025;28;20016;-87
2023/10/25 08:52:25;;;;;;;1.27;0.60;;;12.50;99.90;;;;;;5111440;28;20357;-83
2023/10/25 08:54:51;;;;;;;2.10;0.60;;;12.50;99.90;;;;;;5098979;28;20525;-83
2023/10/25 08:57:18;;;;;;;3.50;0.95;;;12.50;99.90;;;;;;5106235;28;20099;-81
2023/10/25 08:59:46;;;;;;;1.02;0.70;;;12.50;99.90;;;;;;5105162;28;20027;-81
2023/10/25 09:02:12;;;;;;;0.63;0.50;;;12.50;99.90;;;;;;5098783;28;20024;-84
2023/10/25 09:04:56;;;;;;;1.60;0.70;;;12.50;99.90;;;;;;5111145;28;20077;-85
2023/10/25 09:07:38;;;;;;;0.82;0.70;;;12.50;99.90;;;;;;5102613;28;20049;-84
2023/10/25 09:10:22;;;;;;;2.85;0.73;;;12.60;99.90;;;;;;5098317;28;20035;-82
2023/10/25 09:12:48;;;;;;;0.93;0.60;;;12.60;99.90;;;;;;5081445;28;20035;-82
2023/10/25 09:15:13;;;;;;;1.92;0.68;;;12.70;99.90;;;;;;5105291;28;20115;-81
2023/10/25 09:17:39;;;;;;;0.80;0.60;;;12.70;99.90;;;;;;5104577;28;20118;-84
2023/10/25 09:20:08;;;;;;;0.65;0.50;;;12.80;99.90;;;;;;5098774;28;20028;-85
2023/10/25 09:22:34;;;;;;;1.20;0.60;;;12.80;99.90;;;;;;5111226;28;20028;-86
2023/10/25 09:25:02;;;;;;;2.03;0.60;;;12.90;99.90;;;;;;5099973;28;20030;-86
2023/10/25 09:27:28;;;;;;;1.55;0.80;;;12.90;99.90;;;;;;5105086;28;20092;-85
2023/10/25 09:30:10;;;;;;;1.63;0.90;;;13.00;99.90;;;;;;5098162;28;20528;-84
2023/10/25 09:32:36;;;;;;;1.63;0.90;;;13.00;99.90;;;;;;5110367;28;20032;-83
2023/10/25 09:35:03;;;;;;;1.08;0.80;;;13.10;99.90;;;;;;5098687;28;20028;-85
2023/10/25 09:37:29;;;;;;;1.00;0.73;;;13.20;99.90;;;;;;5104008;28;20101;-84
2023/10/25 09:39:54;;;;;;;2.28;0.85;;;13.20;99.90;;;;;;5105219;28;20028;-88
2023/10/25 09:42:25;;;;;;;1.38;0.77;;;13.30;99.90;;;;;;5093592;28;20033;-87
2023/10/25 09:45:00;;;;;;;1.73;0.70;;;13.40;99.90;;;;;;5108001;28;20035;-85
2023/10/25 09:47:29;;;;;;;3.95;1.10;;;13.30;99.90;;;;;;5072755;28;20025;-83
2023/10/25 09:50:06;;;;;;;1.83;1.08;;;13.30;99.90;;;;;;5099777;28;20024;-81
2023/10/25 09:52:35;;;;;;;2.78;1.05;;;13.20;99.90;;;;;;5096209;28;20123;-85
2023/10/25 09:55:13;;;;;;;2.60;1.40;;;13.20;99.90;;;;;;5095877;28;20059;-84
2023/10/25 09:57:40;;;;;;;2.03;0.90;;;13.20;99.90;;;;;;5093628;28;20103;-83
2023/10/25 10:00:08;;;;;;;1.77;1.05;;;13.10;99.90;;;;;;5091760;28;20028;-85
2023/10/25 10:03:02;;;;;;;2.28;1.20;;;13.10;99.90;;;;;;5092891;28;20035;-84
2023/10/25 10:05:36;;;;;;;2.47;1.40;;;13.10;99.90;;;;;;5093120;28;20028;-85
2023/10/25 10:08:12;;;;;;;3.30;0.90;;;13.10;99.90;;;;;;5093700;28;20023;-85
2023/10/25 10:10:57;;;;;;;2.90;1.25;;;13.10;99.90;;;;;;5093355;28;20028;-84
2023/10/25 10:13:23;;;;;;;1.50;1.10;;;13.10;99.90;;;;;;5092659;28;20028;-85
2023/10/25 10:16:04;;;;;;;3.67;1.30;;;13.10;99.90;;;;;;5092273;28;20043;-85
2023/10/25 10:18:33;;;;;;;2.25;1.40;;;13.20;99.90;;;;;;5093159;28;20064;-85
2023/10/25 10:21:01;;;;;;;1.67;1.30;;;13.30;99.90;;;;;;5093647;28;20046;-85
2023/10/25 10:23:40;;;;;;;1.35;1.02;;;13.40;99.90;;;;;;5092960;28;20400;-85
2023/10/25 10:26:08;;;;;;;1.50;1.27;;;13.50;99.90;;;;;;5093523;28;20077;-85
2023/10/25 10:28:44;;;;;;;2.90;1.10;;;13.50;99.90;;;;;;5092998;28;20047;-85
2023/10/25 10:31:11;;;;;;;2.58;1.17;;;13.50;99.90;;;;;;5093524;28;20046;-85
2023/10/25 10:33:47;;;;;;;2.85;1.10;;;13.50;99.90;;;;;;5093630;28;20036;-85
2023/10/25 10:36:24;;;;;;;1.85;1.13;;;13.50;99.90;;;;;;5093780;28;20127;-85
2023/10/25 10:39:13;;;;;;;2.72;1.33;;;13.50;99.90;;;;;;5093267;28;20465;-84
2023/10/25 10:41:43;;;;;;;1.83;1.10;;;13.60;99.90;;;;;;5096479;28;20024;-84
2023/10/25 10:44:09;;;;;;;2.08;1.20;;;13.70;99.90;;;;;;5096149;28;20034;-85
2023/10/25 10:46:43;;;;;;;1.95;1.27;;;13.70;99.90;;;;;;5097910;28;20025;-85
2023/10/25 10:49:13;;;;;;;2.38;1.33;;;13.70;99.90;;;;;;5097100;28;20143;-84
2023/10/25 10:51:39;;;;;;;2.97;1.52;;;13.70;99.90;;;;;;5096829;28;20025;-85
2023/10/25 10:54:06;;;;;;;2.08;1.67;;;13.60;99.90;;;;;;5096939;28;20024;-84
2023/10/25 10:56:32;;;;;;;1.63;1.27;;;13.60;99.90;;;;;;5097478;28;20024;-84
2023/10/25 10:59:00;;;;;;;1.88;1.45;;;13.70;99.90;;;;;;5095908;28;20028;-85
2023/10/25 11:01:26;;;;;;;2.72;1.67;;;13.90;99.90;;;;;;5096433;28;20028;-85
2023/10/25 11:03:52;;;;;;;2.55;1.60;;;14.00;99.90;;;;;;5095307;28;20119;-84
2023/10/25 11:06:21;;;;;;;1.92;1.73;;;14.00;99.90;;;;;;5097381;28;20047;-85
2023/10/25 11:08:46;;;;;;;1.80;1.27;;;14.00;99.90;;;;;;5097297;28;20103;-85
2023/10/25 11:11:13;;;;;;;2.28;1.50;;;14.00;99.90;;;;;;5096764;28;20063;-86
2023/10/25 11:13:39;;;;;;;3.05;1.60;;;13.90;99.90;;;;;;5096133;28;20032;-85
2023/10/25 11:16:08;;;;;;;5.65;1.70;;;13.90;99.90;;;;;;5096725;28;20038;-85
2023/10/25 11:18:35;;;;;;;2.05;1.20;;;14.00;99.90;;;;;;5095582;28;20042;-85
2023/10/25 11:21:01;;;;;;;4.40;1.40;;;14.00;99.90;;;;;;5095388;28;20031;-86
2023/10/25 11:23:26;;;;;;;2.75;1.73;;;14.00;99.90;;;;;;5096775;28;20024;-85
2023/10/25 11:25:53;;;;;;;2.55;1.58;;;14.00;99.90;;;;;;5095473;28;20031;-84
2023/10/25 11:28:19;;;;;;;1.90;1.50;;;14.00;99.90;;;;;;5095724;28;20385;-85
2023/10/25 11:30:45;;;;;;;2.53;1.60;;;13.90;99.90;;;;;;5095835;28;20127;-85
2023/10/25 11:33:11;;;;;;;3.45;1.50;;;13.90;99.90;;;;;;5094965;28;20509;-85
2023/10/25 11:35:42;;;;;;;3.63;1.52;;;14.00;99.90;;;;;;5095730;28;20040;-85
2023/10/25 11:38:09;;;;;;;4.18;1.65;;;14.00;99.90;;;;;;5095335;28;20061;-88
2023/10/25 11:40:47;;;;;;;3.85;1.40;;;14.20;99.90;;;;;;5095733;28;20035;-85
2023/10/25 11:43:13;;;;;;;2.08;1.33;;;14.20;99.90;;;;;;5095779;28;20024;-86
2023/10/25 11:45:40;;;;;;;3.22;1.88;;;14.20;99.90;;;;;;5096619;28;20031;-85
2023/10/25 11:48:07;;;;;;;4.15;1.60;;;14.20;99.90;;;;;;5094983;28;20525;-85
2023/10/25 11:50:33;;;;;;;1.38;1.20;;;14.20;99.90;;;;;;5096465;28;20024;-85
2023/10/25 11:52:59;;;;;;;1.65;1.50;;;14.20;99.90;;;;;;5093918;28;20086;-86
2023/10/25 11:55:25;;;;;;;3.45;1.42;;;14.20;99.90;;;;;;5095362;28;20020;-86
2023/10/25 11:57:51;;;;;;;1.55;1.10;;;14.20;99.90;;;;;;5095206;28;20024;-79
2023/10/25 12:00:17;;;;;;;1.45;1.30;;;14.20;99.90;;;;;;5096397;28;20507;-86
2023/10/25 12:02:43;;;;;;;1.73;1.30;;;14.20;99.90;;;;;;5095425;28;20031;-85
2023/10/25 12:05:09;;;;;;;2.90;1.30;;;14.20;99.90;;;;;;5095729;28;20080;-86
2023/10/25 12:07:35;;;;;;;1.70;1.15;;;14.20;99.90;;;;;;5096123;28;20099;-86
2023/10/25 12:10:00;;;;;;;3.80;1.40;;;14.20;99.90;;;;;;5094579;28;20105;-86
2023/10/25 12:12:26;;;;;;;1.48;1.33;;;14.30;99.90;;;;;;5094758;28;20034;-86
2023/10/25 12:14:52;;;;;;;2.50;1.30;;;14.40;99.90;;;;;;5094954;28;20024;-86
2023/10/25 12:17:18;;;;;;;3.03;1.70;;;14.40;99.90;;;;;;5096023;28;20415;-86
2023/10/25 12:19:45;;;;;;;2.58;1.30;;;14.40;99.90;;;;;;5096026;28;20020;-85
2023/10/25 12:22:12;;;;;;;3.30;1.35;;;14.30;99.90;;;;;;5095379;28;20032;-86
2023/10/25 12:24:40;;;;;;;2.25;1.30;;;14.30;99.90;;;;;;5095626;28;20472;-86
2023/10/25 12:27:07;;;;;;;4.95;3.15;;;14.30;99.90;;;;;;5094364;28;20059;-86
2023/10/25 12:29:33;;;;;;;2.53;1.48;;;14.30;99.90;;;;;;5094638;28;20069;-86
2023/10/25 12:31:59;;;;;;;4.78;1.35;;;14.30;99.90;;;;;;5093920;28;20036;-86
2023/10/25 12:34:25;;;;;;;2.47;0.98;;;14.20;99.90;;;;;;5095897;28;20025;-86
2023/10/25 12:36:50;;;;;;;5.50;1.23;;;14.20;99.90;;;;;;5094178;28;20052;-85
2023/10/25 12:39:16;;;;;;;3.38;1.38;;;14.10;99.90;;;;;;5094227;28;20028;-86
2023/10/25 12:41:43;;;;;;;3.50;1.02;;;14.10;99.90;;;;;;5094902;28;20362;-85
2023/10/25 12:44:09;;;;;;;4.13;1.42;;;14.00;99.90;;;;;;5094819;28;20054;-86